Megan T Miller — WCW9003 — position and weather

sailwx.info

Track history (hours):
 
Tides and Currents Weather Stations Pressure Air Temp Water Temp Dewpoint Dewpoint Depression Visibility Wind Speed Wind Dir Waves Ship Positions

Megan T Miller

More information available from US FCC via Universal Licensing System and Coast Guard Vessel Documentation Center.

Last reported at 2014-Jul-10 00:11 UTC. Time now 2014-Jul-23 15:29 UTC.
Position N 41°18' W 072°54'.
Warning: this ship's position is 13 days out of date.

Length 18 m.

MMSI: 338104509.

Date/timePositionNaut miles runAvg speedWind from/ knotsBaromVisibWave heightAir tempDewpointWater temp
2014-Jul-10 00:11N 41°18' W 072°54'6 8.6
2014-Jul-09 23:32N 41°13' W 072°57'8 8.6
2014-Jul-09 22:33N 41°08' W 073°06'9 8.6
2014-Jul-09 21:33N 41°04' W 073°16'20 9.2
2014-Jul-09 19:25N 40°55' W 073°39'10 8.9
2014-Jul-09 18:20N 40°48' W 073°49'7 8.1
2014-Jul-09 17:29N 40°46' W 073°57'6 6.5
2014-Jul-09 16:33N 40°41' W 074°02'21 6.8
2014-Jul-09 13:30N 40°21' W 073°55'18 9.2
2014-Jul-09 11:33N 40°03' W 073°57'9 9.0
2014-Jul-09 10:32N 39°54' W 073°59'9 8.7
2014-Jul-09 09:33N 39°46' W 074°01'9 8.8
2014-Jul-09 08:33N 39°38' W 074°05'9 9.0
2014-Jul-09 07:33N 39°30' W 074°11'171 9.3
2014-Jul-08 13:12N 36°60' W 075°56'6 9.9
2014-Jul-08 12:33N 36°59' W 076°04'7 6.8
2014-Jul-08 11:31N 36°55' W 076°11'0 0.0
2014-Jul-08 07:18N 36°55' W 076°11'0 0.0
2014-Jul-08 06:33N 36°55' W 076°11'0 0.0
2014-Jul-08 05:22N 36°55' W 076°11'0 0.0
2014-Jul-08 04:33N 36°55' W 076°11'0 0.0
2014-Jul-08 03:16N 36°55' W 076°11'0 0.0
2014-Jul-08 02:32N 36°55' W 076°11'0 0.0
2014-Jul-08 01:26N 36°55' W 076°11'0 0.0
2014-Jul-08 00:33N 36°55' W 076°11'0 0.0
2014-Jul-07 22:19N 36°55' W 076°11'2 2.6
2014-Jul-07 21:32N 36°57' W 076°10'8 8.1
2014-Jul-07 20:30N 36°57' W 075°59'5 0.1
2014-Jul-06 08:33N 36°54' W 075°54'9 8.5
2014-Jul-06 07:33N 36°57' W 076°04'2 2.5
2014-Jul-06 06:33N 36°58' W 076°07'0 0.0
2014-Jul-06 05:33N 36°58' W 076°07'0 0.0
2014-Jul-06 04:33N 36°58' W 076°07'0 0.0
2014-Jul-06 03:33N 36°58' W 076°07'0 0.0
2014-Jul-06 02:33N 36°58' W 076°07'0 0.0
2014-Jul-06 01:33N 36°58' W 076°07'0 0.0
2014-Jul-06 00:33N 36°58' W 076°07'0 0.0
2014-Jul-05 23:33N 36°58' W 076°07'0 0.0
2014-Jul-05 22:34N 36°58' W 076°07'0 0.0
2014-Jul-05 21:33N 36°58' W 076°07'0 0.0
2014-Jul-05 20:33N 36°58' W 076°07'0 0.0
2014-Jul-05 19:33N 36°58' W 076°07'0 0.0
2014-Jul-05 18:33N 36°58' W 076°07'0 0.0
2014-Jul-05 17:33N 36°58' W 076°07'0 0.0
2014-Jul-05 16:33N 36°58' W 076°07'0 0.1
2014-Jul-05 15:33N 36°58' W 076°07'4 4.5
2014-Jul-05 14:33N 36°57' W 076°01'7 6.4
2014-Jul-05 13:27N 36°54' W 075°53'8 8.4
2014-Jul-05 12:33N 36°57' W 076°02'7 7.0
2014-Jul-05 11:33N 36°56' W 076°11'1 1.0
2014-Jul-05 10:33N 36°55' W 076°11'0 0.0
2014-Jul-05 09:33N 36°55' W 076°11'0 0.0
2014-Jul-05 08:33N 36°55' W 076°11'0 0.0
2014-Jul-05 07:33N 36°55' W 076°11'0 0.0
2014-Jul-05 06:33N 36°55' W 076°11'0 0.0
2014-Jul-05 05:33N 36°55' W 076°11'0 0.0
2014-Jul-05 04:33N 36°55' W 076°11'0 0.0
2014-Jul-05 03:34N 36°55' W 076°11'0 0.0
2014-Jul-05 02:34N 36°55' W 076°11'0 0.0
2014-Jul-05 01:33N 36°55' W 076°11'0 0.0
2014-Jul-05 00:33N 36°55' W 076°11'0 0.0
2014-Jul-04 23:33N 36°55' W 076°11'0 0.0
2014-Jul-04 22:33N 36°55' W 076°11'0 0.0
2014-Jul-04 21:33N 36°55' W 076°11'0 0.0
2014-Jul-04 20:33N 36°55' W 076°11'0 0.0
2014-Jul-04 19:33N 36°55' W 076°11'0 0.0
2014-Jul-04 18:33N 36°55' W 076°11'0 0.0
2014-Jul-04 17:33N 36°55' W 076°11'0 0.0
2014-Jul-04 16:33N 36°55' W 076°11'0 0.0
2014-Jul-04 15:33N 36°55' W 076°11'0 0.0
2014-Jul-04 14:33N 36°55' W 076°11'0 0.0
2014-Jul-04 13:33N 36°55' W 076°11'0 0.0
2014-Jul-04 12:33N 36°55' W 076°11'0 0.0
2014-Jul-04 11:33N 36°55' W 076°11'0 0.0
2014-Jul-04 10:33N 36°55' W 076°11'0 0.0
2014-Jul-04 09:33N 36°55' W 076°11'0 0.0
2014-Jul-04 08:34N 36°55' W 076°11'0 0.0
2014-Jul-04 07:34N 36°55' W 076°11'0 0.0
2014-Jul-04 06:33N 36°55' W 076°11'0 0.0
2014-Jul-04 05:33N 36°55' W 076°11'0 0.0
2014-Jul-04 04:33N 36°55' W 076°11'0 0.0
2014-Jul-04 03:33N 36°55' W 076°11'0 0.0
2014-Jul-04 02:33N 36°55' W 076°11'0 0.0
2014-Jul-04 01:33N 36°55' W 076°11'0 0.0
2014-Jul-04 00:33N 36°55' W 076°11'0 0.0
2014-Jul-03 23:33N 36°55' W 076°11'0 0.0
2014-Jul-03 22:33N 36°55' W 076°11'0 0.0
2014-Jul-03 21:33N 36°55' W 076°11'0 0.0
2014-Jul-03 20:32N 36°55' W 076°11'0 0.0
2014-Jul-03 19:33N 36°55' W 076°11'0 0.0
2014-Jul-03 18:33N 36°55' W 076°11'0 0.0
2014-Jul-03 17:33N 36°55' W 076°11'0 0.0
2014-Jul-03 16:33N 36°55' W 076°11'0 0.0
2014-Jul-03 15:33N 36°55' W 076°11'0 0.0
2014-Jul-03 14:33N 36°55' W 076°11'0 0.0
2014-Jul-03 13:33N 36°55' W 076°11'0 0.0
2014-Jul-03 12:33N 36°55' W 076°11'0 0.0
2014-Jul-03 11:33N 36°55' W 076°11'0 0.0
2014-Jul-03 10:33N 36°55' W 076°11'0 0.0
2014-Jul-03 09:33N 36°55' W 076°11'0 0.0
2014-Jul-03 08:32N 36°55' W 076°11'0 0.0
2014-Jul-03 07:33N 36°55' W 076°11'0 0.0
2014-Jul-03 06:33N 36°55' W 076°11'0 0.0
2014-Jul-03 05:33N 36°55' W 076°11'0 0.0
2014-Jul-03 04:33N 36°55' W 076°11'0 0.0
2014-Jul-03 03:34N 36°55' W 076°11'0 0.0
2014-Jul-03 02:33N 36°55' W 076°11'0 0.0
2014-Jul-03 01:34N 36°55' W 076°11'5 4.9
2014-Jul-03 00:33N 36°58' W 076°06'7 7.0
2014-Jul-02 23:33N 36°57' W 075°58'8 0.5
2014-Jul-02 07:30N 36°50' W 075°52'5 0.4
2014-Jul-01 20:19N 36°48' W 075°46'0 0.1
2014-Jul-01 19:26N 36°48' W 075°46'4 3.1
2014-Jul-01 18:16N 36°49' W 075°51'5 2.6
2014-Jul-01 16:32N 36°49' W 075°56'5 1.9
2014-Jul-01 14:03N 36°49' W 075°51'0 0.3
2014-Jul-01 12:29N 36°49' W 075°50'0 0.0
2014-Jul-01 11:23N 36°49' W 075°50'0 0.0
2014-Jul-01 10:04N 36°49' W 075°50'0 0.0
2014-Jul-01 09:33N 36°49' W 075°50'0 0.0
2014-Jul-01 08:29N 36°49' W 075°50'0 0.0
2014-Jul-01 04:29N 36°49' W 075°50'0 0.0
2014-Jul-01 03:33N 36°49' W 075°50'0 0.0
2014-Jul-01 02:32N 36°49' W 075°50'0 0.0
2014-Jul-01 01:33N 36°49' W 075°50'0 0.0
2014-Jul-01 00:34N 36°49' W 075°50'0 0.0
2014-Jun-30 23:33N 36°49' W 075°50'2 2.4
2014-Jun-30 22:33N 36°49' W 075°47'0 0.1
2014-Jun-30 21:33N 36°49' W 075°47'1 1.0
2014-Jun-30 20:33N 36°49' W 075°48'1 0.6
2014-Jun-30 19:33N 36°49' W 075°49'0 0.1
2014-Jun-30 18:33N 36°49' W 075°49'3 2.5
2014-Jun-30 17:33N 36°49' W 075°52'1 1.2
2014-Jun-30 16:33N 36°49' W 075°54'1 0.6
2014-Jun-30 15:33N 36°49' W 075°53'0 0.1
2014-Jun-30 14:27N 36°49' W 075°53'0 0.4
2014-Jun-30 13:33N 36°49' W 075°53'0 0.5
2014-Jun-30 12:33N 36°49' W 075°52'0 0.1
2014-Jun-30 11:33N 36°49' W 075°52'0 0.0
2014-Jun-30 09:33N 36°49' W 075°52'0 0.0
2014-Jun-30 08:34N 36°49' W 075°52'0 0.0
2014-Jun-30 07:09N 36°49' W 075°52'0 0.0
2014-Jun-30 06:30N 36°49' W 075°52'0 0.0
2014-Jun-30 05:13N 36°49' W 075°52'0 0.0
2014-Jun-30 04:04N 36°49' W 075°52'0 0.0
2014-Jun-30 03:31N 36°49' W 075°52'  
Track history (hours):
 
Tides and Currents Weather Stations Pressure Air Temp Water Temp Dewpoint Dewpoint Depression Visibility Wind Speed Wind Dir Waves Ship Positions

Megan T Miller

More information available from US FCC via Universal Licensing System and Coast Guard Vessel Documentation Center.

Last reported at 2014-Jul-10 00:11 UTC. Time now 2014-Jul-23 15:29 UTC.
Position N 41°18' W 072°54'.
Warning: this ship's position is 13 days out of date.

Length 18 m.

MMSI: 338104509.

Date/timePositionNaut miles runAvg speedWind from/ knotsBaromVisibWave heightAir tempDewpointWater temp
2014-Jul-10 00:11N 41°18' W 072°54'6 8.6
2014-Jul-09 23:32N 41°13' W 072°57'8 8.6
2014-Jul-09 22:33N 41°08' W 073°06'9 8.6
2014-Jul-09 21:33N 41°04' W 073°16'20 9.2
2014-Jul-09 19:25N 40°55' W 073°39'10 8.9
2014-Jul-09 18:20N 40°48' W 073°49'7 8.1
2014-Jul-09 17:29N 40°46' W 073°57'6 6.5
2014-Jul-09 16:33N 40°41' W 074°02'21 6.8
2014-Jul-09 13:30N 40°21' W 073°55'18 9.2
2014-Jul-09 11:33N 40°03' W 073°57'9 9.0
2014-Jul-09 10:32N 39°54' W 073°59'9 8.7
2014-Jul-09 09:33N 39°46' W 074°01'9 8.8
2014-Jul-09 08:33N 39°38' W 074°05'9 9.0
2014-Jul-09 07:33N 39°30' W 074°11'171 9.3
2014-Jul-08 13:12N 36°60' W 075°56'6 9.9
2014-Jul-08 12:33N 36°59' W 076°04'7 6.8
2014-Jul-08 11:31N 36°55' W 076°11'0 0.0
2014-Jul-08 07:18N 36°55' W 076°11'0 0.0
2014-Jul-08 06:33N 36°55' W 076°11'0 0.0
2014-Jul-08 05:22N 36°55' W 076°11'0 0.0
2014-Jul-08 04:33N 36°55' W 076°11'0 0.0
2014-Jul-08 03:16N 36°55' W 076°11'0 0.0
2014-Jul-08 02:32N 36°55' W 076°11'0 0.0
2014-Jul-08 01:26N 36°55' W 076°11'0 0.0
2014-Jul-08 00:33N 36°55' W 076°11'0 0.0
2014-Jul-07 22:19N 36°55' W 076°11'2 2.6
2014-Jul-07 21:32N 36°57' W 076°10'8 8.1
2014-Jul-07 20:30N 36°57' W 075°59'5 0.1
2014-Jul-06 08:33N 36°54' W 075°54'9 8.5
2014-Jul-06 07:33N 36°57' W 076°04'2 2.5
2014-Jul-06 06:33N 36°58' W 076°07'0 0.0
2014-Jul-06 05:33N 36°58' W 076°07'0 0.0
2014-Jul-06 04:33N 36°58' W 076°07'0 0.0
2014-Jul-06 03:33N 36°58' W 076°07'0 0.0
2014-Jul-06 02:33N 36°58' W 076°07'0 0.0
2014-Jul-06 01:33N 36°58' W 076°07'0 0.0
2014-Jul-06 00:33N 36°58' W 076°07'0 0.0
2014-Jul-05 23:33N 36°58' W 076°07'0 0.0
2014-Jul-05 22:34N 36°58' W 076°07'0 0.0
2014-Jul-05 21:33N 36°58' W 076°07'0 0.0
2014-Jul-05 20:33N 36°58' W 076°07'0 0.0
2014-Jul-05 19:33N 36°58' W 076°07'0 0.0
2014-Jul-05 18:33N 36°58' W 076°07'0 0.0
2014-Jul-05 17:33N 36°58' W 076°07'0 0.0
2014-Jul-05 16:33N 36°58' W 076°07'0 0.1
2014-Jul-05 15:33N 36°58' W 076°07'4 4.5
2014-Jul-05 14:33N 36°57' W 076°01'7 6.4
2014-Jul-05 13:27N 36°54' W 075°53'8 8.4
2014-Jul-05 12:33N 36°57' W 076°02'7 7.0
2014-Jul-05 11:33N 36°56' W 076°11'1 1.0
2014-Jul-05 10:33N 36°55' W 076°11'0 0.0
2014-Jul-05 09:33N 36°55' W 076°11'0 0.0
2014-Jul-05 08:33N 36°55' W 076°11'0 0.0
2014-Jul-05 07:33N 36°55' W 076°11'0 0.0
2014-Jul-05 06:33N 36°55' W 076°11'0 0.0
2014-Jul-05 05:33N 36°55' W 076°11'0 0.0
2014-Jul-05 04:33N 36°55' W 076°11'0 0.0
2014-Jul-05 03:34N 36°55' W 076°11'0 0.0
2014-Jul-05 02:34N 36°55' W 076°11'0 0.0
2014-Jul-05 01:33N 36°55' W 076°11'0 0.0
2014-Jul-05 00:33N 36°55' W 076°11'0 0.0
2014-Jul-04 23:33N 36°55' W 076°11'0 0.0
2014-Jul-04 22:33N 36°55' W 076°11'0 0.0
2014-Jul-04 21:33N 36°55' W 076°11'0 0.0
2014-Jul-04 20:33N 36°55' W 076°11'0 0.0
2014-Jul-04 19:33N 36°55' W 076°11'0 0.0
2014-Jul-04 18:33N 36°55' W 076°11'0 0.0
2014-Jul-04 17:33N 36°55' W 076°11'0 0.0
2014-Jul-04 16:33N 36°55' W 076°11'0 0.0
2014-Jul-04 15:33N 36°55' W 076°11'0 0.0
2014-Jul-04 14:33N 36°55' W 076°11'0 0.0
2014-Jul-04 13:33N 36°55' W 076°11'0 0.0
2014-Jul-04 12:33N 36°55' W 076°11'0 0.0
2014-Jul-04 11:33N 36°55' W 076°11'0 0.0
2014-Jul-04 10:33N 36°55' W 076°11'0 0.0
2014-Jul-04 09:33N 36°55' W 076°11'0 0.0
2014-Jul-04 08:34N 36°55' W 076°11'0 0.0
2014-Jul-04 07:34N 36°55' W 076°11'0 0.0
2014-Jul-04 06:33N 36°55' W 076°11'0 0.0
2014-Jul-04 05:33N 36°55' W 076°11'0 0.0
2014-Jul-04 04:33N 36°55' W 076°11'0 0.0
2014-Jul-04 03:33N 36°55' W 076°11'0 0.0
2014-Jul-04 02:33N 36°55' W 076°11'0 0.0
2014-Jul-04 01:33N 36°55' W 076°11'0 0.0
2014-Jul-04 00:33N 36°55' W 076°11'0 0.0
2014-Jul-03 23:33N 36°55' W 076°11'0 0.0
2014-Jul-03 22:33N 36°55' W 076°11'0 0.0
2014-Jul-03 21:33N 36°55' W 076°11'0 0.0
2014-Jul-03 20:32N 36°55' W 076°11'0 0.0
2014-Jul-03 19:33N 36°55' W 076°11'0 0.0
2014-Jul-03 18:33N 36°55' W 076°11'0 0.0
2014-Jul-03 17:33N 36°55' W 076°11'0 0.0
2014-Jul-03 16:33N 36°55' W 076°11'0 0.0
2014-Jul-03 15:33N 36°55' W 076°11'0 0.0
2014-Jul-03 14:33N 36°55' W 076°11'0 0.0
2014-Jul-03 13:33N 36°55' W 076°11'0 0.0
2014-Jul-03 12:33N 36°55' W 076°11'0 0.0
2014-Jul-03 11:33N 36°55' W 076°11'0 0.0
2014-Jul-03 10:33N 36°55' W 076°11'0 0.0
2014-Jul-03 09:33N 36°55' W 076°11'0 0.0
2014-Jul-03 08:32N 36°55' W 076°11'0 0.0
2014-Jul-03 07:33N 36°55' W 076°11'0 0.0
2014-Jul-03 06:33N 36°55' W 076°11'0 0.0
2014-Jul-03 05:33N 36°55' W 076°11'0 0.0
2014-Jul-03 04:33N 36°55' W 076°11'0 0.0
2014-Jul-03 03:34N 36°55' W 076°11'0 0.0
2014-Jul-03 02:33N 36°55' W 076°11'0 0.0
2014-Jul-03 01:34N 36°55' W 076°11'5 4.9
2014-Jul-03 00:33N 36°58' W 076°06'7 7.0
2014-Jul-02 23:33N 36°57' W 075°58'8 0.5
2014-Jul-02 07:30N 36°50' W 075°52'5 0.4
2014-Jul-01 20:19N 36°48' W 075°46'0 0.1
2014-Jul-01 19:26N 36°48' W 075°46'4 3.1
2014-Jul-01 18:16N 36°49' W 075°51'5 2.6
2014-Jul-01 16:32N 36°49' W 075°56'5 1.9
2014-Jul-01 14:03N 36°49' W 075°51'0 0.3
2014-Jul-01 12:29N 36°49' W 075°50'0 0.0
2014-Jul-01 11:23N 36°49' W 075°50'0 0.0
2014-Jul-01 10:04N 36°49' W 075°50'0 0.0
2014-Jul-01 09:33N 36°49' W 075°50'0 0.0
2014-Jul-01 08:29N 36°49' W 075°50'0 0.0
2014-Jul-01 04:29N 36°49' W 075°50'0 0.0
2014-Jul-01 03:33N 36°49' W 075°50'0 0.0
2014-Jul-01 02:32N 36°49' W 075°50'0 0.0
2014-Jul-01 01:33N 36°49' W 075°50'0 0.0
2014-Jul-01 00:34N 36°49' W 075°50'0 0.0
2014-Jun-30 23:33N 36°49' W 075°50'2 2.4
2014-Jun-30 22:33N 36°49' W 075°47'0 0.1
2014-Jun-30 21:33N 36°49' W 075°47'1 1.0
2014-Jun-30 20:33N 36°49' W 075°48'1 0.6
2014-Jun-30 19:33N 36°49' W 075°49'0 0.1
2014-Jun-30 18:33N 36°49' W 075°49'3 2.5
2014-Jun-30 17:33N 36°49' W 075°52'1 1.2
2014-Jun-30 16:33N 36°49' W 075°54'1 0.6
2014-Jun-30 15:33N 36°49' W 075°53'0 0.1
2014-Jun-30 14:27N 36°49' W 075°53'0 0.4
2014-Jun-30 13:33N 36°49' W 075°53'0 0.5
2014-Jun-30 12:33N 36°49' W 075°52'0 0.1
2014-Jun-30 11:33N 36°49' W 075°52'0 0.0
2014-Jun-30 09:33N 36°49' W 075°52'0 0.0
2014-Jun-30 08:34N 36°49' W 075°52'0 0.0
2014-Jun-30 07:09N 36°49' W 075°52'0 0.0
2014-Jun-30 06:30N 36°49' W 075°52'0 0.0
2014-Jun-30 05:13N 36°49' W 075°52'0 0.0
2014-Jun-30 04:04N 36°49' W 075°52'0 0.0
2014-Jun-30 03:31N 36°49' W 075°52'  

Dump ship's entire track history